Terminal Aerodrome Forecast
Issued by NWS Sterling, VA

Current Version | Previous Version | Text Only | Print | Product List | Glossary Off
Versions: 1 2 3 4 5 6 7 8 9 10 11 12 13 14 15 16 17 18 19

000
FTUS41 KLWX 202336 AAA
TAFMRB
TAF AMD
KMRB 202336Z 2100/2124 10006KT P6SM OVC015
     FM210700 12005KT P6SM OVC020
     FM211000 11004KT P6SM OVC040
     FM211500 13008KT P6SM BKN050
     FM212100 14010KT P6SM OVC025=

USA.gov is the U.S. government's official web portal to all federal, state and local government web resources and services.